createdAt,value
2019-01-31T00:01:36.161Z,98592
2019-01-31T00:07:08.624Z,98588
2019-01-31T00:12:31.330Z,98586
2019-01-31T00:17:54.190Z,98585
2019-01-31T00:23:17.161Z,98580
2019-01-31T00:28:48.745Z,98576
2019-01-31T00:34:11.986Z,98585
2019-01-31T00:39:46.515Z,98584
2019-01-31T00:45:10.192Z,98574
2019-01-31T00:50:44.573Z,98580
2019-01-31T00:56:07.237Z,98584
2019-01-31T01:01:29.929Z,98593
2019-01-31T01:06:52.856Z,98598
2019-01-31T01:12:16.024Z,98597
2019-01-31T01:17:38.841Z,98599
2019-01-31T01:23:01.592Z,98604
2019-01-31T01:28:24.497Z,98606
2019-01-31T01:33:58.120Z,98619
2019-01-31T01:39:20.862Z,98618
2019-01-31T01:44:43.857Z,98629
2019-01-31T01:50:06.561Z,98635
2019-01-31T01:55:29.656Z,98636
2019-01-31T02:00:52.611Z,98641
2019-01-31T02:06:15.279Z,98632
2019-01-31T02:11:48.284Z,98639
2019-01-31T02:17:11.938Z,98638
2019-01-31T02:22:34.779Z,98645
2019-01-31T02:28:06.695Z,98649
2019-01-31T02:33:40.715Z,98654
2019-01-31T02:39:12.561Z,98657
2019-01-31T02:44:35.262Z,98652
2019-01-31T02:50:08.429Z,98651
2019-01-31T02:55:31.339Z,98657
2019-01-31T03:00:54.034Z,98667
2019-01-31T03:06:16.925Z,98659
2019-01-31T03:11:39.774Z,98659
2019-01-31T03:17:02.604Z,98661
2019-01-31T03:22:25.813Z,98662
2019-01-31T03:27:48.828Z,98662
2019-01-31T03:33:11.667Z,98669
2019-01-31T03:38:34.378Z,98663
2019-01-31T03:43:57.610Z,98673
2019-01-31T03:49:31.153Z,98678
2019-01-31T03:54:54.984Z,98679
2019-01-31T04:00:17.997Z,98682
2019-01-31T04:05:50.363Z,98682
2019-01-31T04:11:14.125Z,98684
2019-01-31T04:16:37.033Z,98697
2019-01-31T04:21:59.853Z,98693
2019-01-31T04:27:22.608Z,98700
2019-01-31T04:32:45.440Z,98706
2019-01-31T04:38:08.233Z,98701
2019-01-31T04:43:31.008Z,98704
2019-01-31T04:48:53.940Z,98699
2019-01-31T04:54:17.157Z,98694
2019-01-31T04:59:39.948Z,98699
2019-01-31T05:05:02.783Z,98700
2019-01-31T05:10:25.655Z,98703
2019-01-31T05:15:58.559Z,98707
2019-01-31T05:21:22.407Z,98708
2019-01-31T05:26:45.304Z,98713
2019-01-31T05:32:37.442Z,98719
2019-01-31T05:38:00.395Z,98712
2019-01-31T05:43:23.389Z,98717
2019-01-31T05:48:46.481Z,98723
2019-01-31T05:54:10.020Z,98730
2019-01-31T05:59:42.884Z,98732
2019-01-31T06:05:16.190Z,98748
2019-01-31T06:10:49.046Z,98745
2019-01-31T06:16:20.583Z,98743
2019-01-31T06:21:43.641Z,98746
2019-01-31T06:27:06.753Z,98745
2019-01-31T06:32:29.496Z,98754
2019-01-31T06:38:01.405Z,98760
2019-01-31T06:43:34.935Z,98765
2019-01-31T06:49:07.726Z,98753
2019-01-31T06:54:43.616Z,98760
2019-01-31T07:00:06.188Z,98767
2019-01-31T07:05:38.944Z,98769
2019-01-31T07:11:13.024Z,98781
2019-01-31T07:16:45.594Z,98788
2019-01-31T07:22:08.986Z,98791
2019-01-31T07:27:31.728Z,98797
2019-01-31T07:33:06.105Z,98808
2019-01-31T07:38:38.065Z,98808
2019-01-31T07:44:00.890Z,98814
2019-01-31T07:49:32.553Z,98818
2019-01-31T07:54:56.117Z,98826
2019-01-31T08:00:20.067Z,98822
2019-01-31T08:05:50.736Z,98828
2019-01-31T08:11:13.665Z,98837
2019-01-31T08:16:46.916Z,98842
2019-01-31T08:22:09.948Z,98844
2019-01-31T08:27:42.828Z,98845
2019-01-31T08:33:14.325Z,98850
2019-01-31T08:38:46.218Z,98853
2019-01-31T08:44:18.345Z,98860
2019-01-31T08:49:41.781Z,98862
2019-01-31T08:55:13.248Z,98860
2019-01-31T09:00:36.041Z,98863
2019-01-31T09:06:08.879Z,98864
2019-01-31T09:11:32.704Z,98863
2019-01-31T09:17:06.041Z,98854
2019-01-31T09:22:39.723Z,98850
2019-01-31T09:28:13.765Z,98851
2019-01-31T09:33:47.172Z,98850
2019-01-31T09:39:10.344Z,98858
2019-01-31T09:44:43.462Z,98868
2019-01-31T09:50:06.165Z,98878
2019-01-31T09:55:38.579Z,98884
2019-01-31T10:01:01.584Z,98886
2019-01-31T10:06:35.121Z,98893
2019-01-31T10:12:07.362Z,98894
2019-01-31T10:17:30.697Z,98897
2019-01-31T10:23:04.061Z,98893
2019-01-31T10:28:27.228Z,98887
2019-01-31T10:33:50.110Z,98885
2019-01-31T10:39:12.849Z,98886
2019-01-31T10:44:35.603Z,98883
2019-01-31T10:49:58.299Z,98878
2019-01-31T10:55:31.195Z,98876
2019-01-31T11:00:53.928Z,98871
2019-01-31T11:06:16.694Z,98869
2019-01-31T11:11:39.529Z,98866
2019-01-31T11:17:02.501Z,98864
2019-01-31T11:22:25.529Z,98862
2019-01-31T11:27:48.296Z,98859
2019-01-31T11:33:10.979Z,98856
2019-01-31T11:38:33.675Z,98855
2019-01-31T11:43:56.577Z,98846
2019-01-31T11:49:19.636Z,98846
2019-01-31T11:54:42.367Z,98830
2019-01-31T12:00:05.095Z,98818
2019-01-31T12:05:27.756Z,98807
2019-01-31T12:10:50.791Z,98800
2019-01-31T12:16:13.595Z,98791
2019-01-31T12:21:36.501Z,98791
2019-01-31T12:26:59.478Z,98790
2019-01-31T12:32:22.150Z,98787
2019-01-31T12:37:44.945Z,98775
2019-01-31T12:43:07.662Z,98773
2019-01-31T12:48:30.304Z,98766
2019-01-31T12:53:53.356Z,98766
2019-01-31T12:59:16.072Z,98750
2019-01-31T13:04:38.767Z,98751
2019-01-31T13:10:01.582Z,98736
2019-01-31T13:15:24.334Z,98721
2019-01-31T13:20:47.985Z,98726
2019-01-31T13:26:11.622Z,98718
2019-01-31T13:31:34.266Z,98717
2019-01-31T13:36:57.026Z,98721
2019-01-31T13:42:19.802Z,98726
2019-01-31T13:47:42.757Z,98723
2019-01-31T13:53:05.556Z,98729
2019-01-31T13:58:28.298Z,98727
2019-01-31T14:03:50.983Z,98724
2019-01-31T14:09:13.654Z,98736
2019-01-31T14:14:36.333Z,98734
2019-01-31T14:19:59.776Z,98738
2019-01-31T14:25:22.800Z,98738
2019-01-31T14:30:45.547Z,98740
2019-01-31T14:36:08.252Z,98752
2019-01-31T14:41:31.700Z,98752
2019-01-31T14:46:54.693Z,98744
2019-01-31T14:52:17.393Z,98743
2019-01-31T14:57:40.076Z,98742
2019-01-31T15:03:02.803Z,98739
2019-01-31T15:08:25.893Z,98737
2019-01-31T15:13:48.910Z,98735
2019-01-31T15:19:11.692Z,98731
2019-01-31T15:24:34.439Z,98739
2019-01-31T15:29:57.909Z,98735
2019-01-31T15:35:21.276Z,98726
2019-01-31T15:40:44.748Z,98724
2019-01-31T15:46:07.440Z,98719
2019-01-31T15:51:30.532Z,98719
2019-01-31T15:56:53.229Z,98719
2019-01-31T16:02:16.102Z,98715
2019-01-31T16:07:38.716Z,98717
2019-01-31T16:13:01.427Z,98714
2019-01-31T16:18:24.158Z,98716
2019-01-31T16:23:46.833Z,98715
2019-01-31T16:29:09.602Z,98709
2019-01-31T16:34:34.139Z,98707
2019-01-31T16:39:56.772Z,98714
2019-01-31T16:45:19.530Z,98711
2019-01-31T16:50:42.189Z,98709
2019-01-31T16:56:04.990Z,98706
2019-01-31T17:01:27.899Z,98711
2019-01-31T17:06:50.827Z,98707
2019-01-31T17:12:13.620Z,98703
2019-01-31T17:17:37.289Z,98697
2019-01-31T17:22:59.974Z,98696
2019-01-31T17:28:22.646Z,98691
2019-01-31T17:33:45.660Z,98687
2019-01-31T17:39:09.374Z,98682
2019-01-31T17:44:32.701Z,98677
2019-01-31T17:49:55.407Z,98678
2019-01-31T17:55:18.131Z,98671
2019-01-31T18:00:40.839Z,98668
2019-01-31T18:06:03.491Z,98666
2019-01-31T18:11:26.211Z,98657
2019-01-31T18:16:48.911Z,98653
2019-01-31T18:22:11.729Z,98654
2019-01-31T18:27:34.434Z,98646
2019-01-31T18:32:57.915Z,98641
2019-01-31T18:38:20.772Z,98637
2019-01-31T18:43:44.236Z,98630
2019-01-31T18:49:07.110Z,98633
2019-01-31T18:54:29.876Z,98629
2019-01-31T18:59:52.583Z,98628
2019-01-31T19:05:15.375Z,98629
2019-01-31T19:10:43.019Z,98630
2019-01-31T19:16:04.932Z,98631
2019-01-31T19:21:24.529Z,98630
2019-01-31T19:26:47.239Z,98624
2019-01-31T19:32:10.091Z,98621
2019-01-31T19:37:33.258Z,98621
2019-01-31T19:42:56.055Z,98619
2019-01-31T19:48:18.842Z,98613
2019-01-31T19:53:41.643Z,98612
2019-01-31T19:59:06.661Z,98613
2019-01-31T20:04:28.926Z,98606
2019-01-31T20:09:52.707Z,98595
2019-01-31T20:15:15.510Z,98596
2019-01-31T20:20:38.444Z,98591
2019-01-31T20:26:02.035Z,98586
2019-01-31T20:31:24.759Z,98586
2019-01-31T20:36:47.485Z,98584
2019-01-31T20:42:10.335Z,98581
2019-01-31T20:47:33.423Z,98570
2019-01-31T20:52:56.205Z,98565
2019-01-31T20:58:19.006Z,98566
2019-01-31T21:03:42.011Z,98563
2019-01-31T21:09:04.802Z,98548
2019-01-31T21:14:27.666Z,98538
2019-01-31T21:19:50.477Z,98531
2019-01-31T21:25:13.203Z,98521
2019-01-31T21:30:36.905Z,98515
2019-01-31T21:36:00.211Z,98516
2019-01-31T21:41:22.908Z,98509
2019-01-31T21:46:45.810Z,98499
2019-01-31T21:52:08.677Z,98495
2019-01-31T21:57:31.321Z,98492
2019-01-31T22:02:54.020Z,98490
2019-01-31T22:08:16.738Z,98477
2019-01-31T22:13:40.336Z,98475
2019-01-31T22:19:03.012Z,98475
2019-01-31T22:24:25.686Z,98477
2019-01-31T22:29:48.417Z,98470
2019-01-31T22:35:11.067Z,98477
2019-01-31T22:40:34.729Z,98475
2019-01-31T22:45:57.401Z,98472
2019-01-31T22:51:20.440Z,98470
2019-01-31T22:56:43.007Z,98461
2019-01-31T23:02:05.715Z,98455
2019-01-31T23:07:28.399Z,98447
2019-01-31T23:12:51.322Z,98439
2019-01-31T23:18:14.152Z,98432
2019-01-31T23:23:36.855Z,98429
2019-01-31T23:28:59.459Z,98433
2019-01-31T23:34:22.243Z,98435
2019-01-31T23:39:44.881Z,98430
2019-01-31T23:45:07.636Z,98417
2019-01-31T23:50:30.404Z,98424
2019-01-31T23:55:53.040Z,98413
